createdAt,value
2017-08-05T00:00:24.844Z,15.4
2017-08-05T00:01:27.331Z,15.4
2017-08-05T00:02:30.168Z,15.4
2017-08-05T00:03:32.991Z,15.4
2017-08-05T00:04:35.484Z,15.4
2017-08-05T00:05:37.979Z,15.4
2017-08-05T00:06:40.803Z,15.4
2017-08-05T00:07:43.296Z,15.4
2017-08-05T00:08:45.799Z,15.4
2017-08-05T00:09:48.283Z,15.3
2017-08-05T00:10:50.773Z,15.3
2017-08-05T00:11:53.254Z,15.3
2017-08-05T00:12:56.075Z,15.3
2017-08-05T00:13:58.929Z,15.3
2017-08-05T00:15:01.750Z,15.4
2017-08-05T00:16:04.941Z,15.4
2017-08-05T00:17:07.431Z,15.4
2017-08-05T00:18:09.922Z,15.4
2017-08-05T00:19:12.420Z,15.4
2017-08-05T00:20:14.893Z,15.4
2017-08-05T00:21:17.377Z,15.4
2017-08-05T00:22:19.869Z,15.4
2017-08-05T00:23:22.739Z,15.4
2017-08-05T00:24:25.230Z,15.5
2017-08-05T00:25:27.713Z,15.4
2017-08-05T00:26:30.545Z,15.4
2017-08-05T00:27:33.034Z,15.4
2017-08-05T00:28:35.535Z,15.4
2017-08-05T00:29:38.721Z,15.4
2017-08-05T00:30:41.571Z,15.4
2017-08-05T00:31:44.059Z,15.4
2017-08-05T00:32:46.577Z,15.4
2017-08-05T00:33:49.405Z,15.4
2017-08-05T00:34:51.889Z,15.4
2017-08-05T00:35:54.380Z,15.4
2017-08-05T00:36:56.869Z,15.4
2017-08-05T00:37:59.343Z,15.4
2017-08-05T00:39:02.192Z,15.4
2017-08-05T00:40:04.655Z,15.4
2017-08-05T00:41:07.503Z,15.4
2017-08-05T00:42:10.663Z,15.4
2017-08-05T00:43:13.155Z,15.4
2017-08-05T00:44:15.640Z,15.4
2017-08-05T00:45:18.479Z,15.4
2017-08-05T00:46:20.965Z,15.4
2017-08-05T00:47:23.458Z,15.4
2017-08-05T00:48:25.957Z,15.4
2017-08-05T00:49:28.787Z,15.4
2017-08-05T00:50:31.276Z,15.4
2017-08-05T00:51:34.107Z,15.4
2017-08-05T00:52:36.938Z,15.4
2017-08-05T00:53:39.433Z,15.3
2017-08-05T00:54:41.915Z,15.3
2017-08-05T00:55:44.405Z,15.3
2017-08-05T00:56:46.889Z,15.3
2017-08-05T00:57:49.731Z,15.3
2017-08-05T00:58:52.197Z,15.3
2017-08-05T00:59:55.031Z,15.2
2017-08-05T01:00:57.867Z,15.2
2017-08-05T01:02:00.341Z,15.2
2017-08-05T01:03:03.166Z,15.3
2017-08-05T01:04:06.045Z,15.3
2017-08-05T01:05:08.531Z,15.3
2017-08-05T01:06:11.009Z,15.3
2017-08-05T01:07:13.842Z,15.3
2017-08-05T01:08:16.677Z,15.2
2017-08-05T01:09:19.153Z,15.2
2017-08-05T01:10:21.629Z,15.2
2017-08-05T01:11:24.447Z,15.2
2017-08-05T01:12:27.610Z,15.2
2017-08-05T01:13:30.797Z,15.2
2017-08-05T01:14:33.285Z,15.2
2017-08-05T01:15:35.749Z,15.2
2017-08-05T01:16:38.241Z,15.2
2017-08-05T01:17:41.079Z,15.2
2017-08-05T01:18:43.573Z,15.2
2017-08-05T01:19:46.075Z,15.2
2017-08-05T01:20:48.909Z,15.3
2017-08-05T01:21:51.394Z,15.2
2017-08-05T01:22:53.882Z,15.2
2017-08-05T01:23:56.368Z,15.2
2017-08-05T01:24:59.229Z,15.2
2017-08-05T01:26:02.400Z,15.1
2017-08-05T01:27:05.570Z,15.1
2017-08-05T01:28:08.077Z,15.1
2017-08-05T01:29:10.571Z,15.1
2017-08-05T01:30:13.039Z,15.1
2017-08-05T01:31:15.535Z,15
2017-08-05T01:32:18.717Z,15
2017-08-05T01:33:21.545Z,15
2017-08-05T01:34:24.029Z,15
2017-08-05T01:35:26.530Z,14.9
2017-08-05T01:36:29.021Z,14.9
2017-08-05T01:37:31.509Z,14.9
2017-08-05T01:38:34.004Z,14.9
2017-08-05T01:39:36.819Z,14.9
2017-08-05T01:40:39.314Z,14.9
2017-08-05T01:41:41.806Z,14.9
2017-08-05T01:42:44.290Z,14.8
2017-08-05T01:43:47.117Z,14.8
2017-08-05T01:44:50.283Z,14.8
2017-08-05T01:45:52.760Z,14.8
2017-08-05T01:46:55.599Z,14.7
2017-08-05T01:47:58.076Z,14.7
2017-08-05T01:49:01.396Z,14.7
2017-08-05T01:50:03.884Z,14.7
2017-08-05T01:51:06.380Z,14.7
2017-08-05T01:52:08.863Z,14.6
2017-08-05T01:53:11.766Z,14.6
2017-08-05T01:54:14.588Z,14.6
2017-08-05T01:55:17.087Z,14.6
2017-08-05T01:56:19.571Z,14.6
2017-08-05T01:57:22.760Z,14.6
2017-08-05T01:58:25.255Z,14.6
2017-08-05T01:59:27.754Z,14.6
2017-08-05T02:00:30.594Z,14.6
2017-08-05T02:01:33.082Z,14.6
2017-08-05T02:02:36.240Z,14.6
2017-08-05T02:03:39.421Z,14.5
2017-08-05T02:04:41.893Z,14.5
2017-08-05T02:05:44.384Z,14.5
2017-08-05T02:06:47.233Z,14.5
2017-08-05T02:07:50.401Z,14.5
2017-08-05T02:08:53.237Z,14.5
2017-08-05T02:09:55.727Z,14.5
2017-08-05T02:10:58.212Z,14.4
2017-08-05T02:12:00.699Z,14.4
2017-08-05T02:13:03.203Z,14.4
2017-08-05T02:14:06.034Z,14.4
2017-08-05T02:15:08.510Z,14.4
2017-08-05T02:16:10.993Z,14.4
2017-08-05T02:17:13.491Z,14.4
2017-08-05T02:18:15.999Z,14.4
2017-08-05T02:19:18.491Z,14.4
2017-08-05T02:20:20.987Z,14.4
2017-08-05T02:21:23.497Z,14.4
2017-08-05T02:22:25.989Z,14.4
2017-08-05T02:23:28.470Z,14.3
2017-08-05T02:24:30.963Z,14.3
2017-08-05T02:25:33.775Z,14.3
2017-08-05T02:26:36.274Z,14.3
2017-08-05T02:27:38.761Z,14.3
2017-08-05T02:28:41.599Z,14.3
2017-08-05T02:29:44.079Z,14.3
2017-08-05T02:30:47.253Z,14.3
2017-08-05T02:31:50.104Z,14.2
2017-08-05T02:32:52.624Z,14.3
2017-08-05T02:33:55.456Z,14.2
2017-08-05T02:34:58.279Z,14.2
2017-08-05T02:36:00.767Z,14.1
2017-08-05T02:37:03.937Z,14.1
2017-08-05T02:38:06.442Z,14.1
2017-08-05T02:39:08.917Z,14.1
2017-08-05T02:40:12.118Z,14.1
2017-08-05T02:41:14.954Z,14.1
2017-08-05T02:42:17.791Z,14.1
2017-08-05T02:43:20.637Z,14.1
2017-08-05T02:44:23.124Z,14.1
2017-08-05T02:45:26.292Z,14.1
2017-08-05T02:46:29.483Z,14
2017-08-05T02:47:31.968Z,14
2017-08-05T02:48:34.806Z,14
2017-08-05T02:49:37.306Z,14.1
2017-08-05T02:50:40.482Z,14.1
2017-08-05T02:51:42.964Z,14
2017-08-05T02:52:45.815Z,14
2017-08-05T02:53:48.307Z,14
2017-08-05T02:54:51.831Z,14
2017-08-05T02:55:54.324Z,13.9
2017-08-05T02:56:57.162Z,13.9
2017-08-05T02:57:59.982Z,13.9
2017-08-05T02:59:03.148Z,14
2017-08-05T03:00:05.635Z,14
2017-08-05T03:01:08.129Z,14
2017-08-05T03:02:11.307Z,14
2017-08-05T03:03:14.129Z,13.9
2017-08-05T03:04:16.957Z,13.9
2017-08-05T03:05:19.805Z,13.9
2017-08-05T03:06:22.287Z,13.9
2017-08-05T03:07:24.778Z,13.9
2017-08-05T03:08:27.311Z,13.9
2017-08-05T03:09:29.788Z,13.8
2017-08-05T03:10:32.624Z,13.8
2017-08-05T03:11:35.803Z,13.9
2017-08-05T03:12:38.620Z,13.9
2017-08-05T03:13:41.106Z,13.9
2017-08-05T03:14:43.602Z,13.8
2017-08-05T03:15:46.780Z,13.8
2017-08-05T03:16:49.259Z,13.8
2017-08-05T03:17:51.758Z,13.8
2017-08-05T03:18:54.242Z,13.8
2017-08-05T03:19:56.742Z,13.8
2017-08-05T03:20:59.325Z,13.8
2017-08-05T03:22:02.157Z,13.8
2017-08-05T03:23:05.260Z,13.8
2017-08-05T03:24:07.748Z,13.8
2017-08-05T03:25:10.593Z,13.8
2017-08-05T03:26:14.457Z,13.8
2017-08-05T03:27:16.925Z,13.8
2017-08-05T03:28:19.764Z,13.7
2017-08-05T03:29:22.589Z,13.7
2017-08-05T03:30:25.099Z,13.7
2017-08-05T03:31:27.601Z,13.7
2017-08-05T03:32:30.433Z,13.7
2017-08-05T03:33:33.299Z,13.7
2017-08-05T03:34:35.788Z,13.7
2017-08-05T03:35:38.272Z,13.7
2017-08-05T03:36:41.124Z,13.7
2017-08-05T03:37:43.624Z,13.7
2017-08-05T03:38:46.101Z,13.7
2017-08-05T03:39:48.584Z,13.7
2017-08-05T03:40:51.419Z,13.6
2017-08-05T03:41:53.915Z,13.7
2017-08-05T03:42:56.403Z,13.6
2017-08-05T03:43:58.879Z,13.6
2017-08-05T03:45:01.377Z,13.6
2017-08-05T03:46:04.554Z,13.6
2017-08-05T03:47:07.051Z,13.6
2017-08-05T03:48:09.877Z,13.6
2017-08-05T03:49:12.696Z,13.6
2017-08-05T03:50:15.199Z,13.6
2017-08-05T03:51:18.385Z,13.6
2017-08-05T03:52:21.214Z,13.6
2017-08-05T03:53:24.036Z,13.6
2017-08-05T03:54:26.523Z,13.6
2017-08-05T03:55:29.347Z,13.6
2017-08-05T03:56:32.173Z,13.5
2017-08-05T03:57:34.688Z,13.6
2017-08-05T03:58:37.505Z,13.6
2017-08-05T03:59:40.006Z,13.6
2017-08-05T04:00:42.511Z,13.6
2017-08-05T04:01:45.352Z,13.6
2017-08-05T04:02:48.159Z,13.6
2017-08-05T04:03:50.650Z,13.6
2017-08-05T04:04:53.489Z,13.7
2017-08-05T04:05:55.978Z,13.7
2017-08-05T04:06:59.152Z,13.7
2017-08-05T04:08:02.318Z,13.7
2017-08-05T04:09:05.144Z,13.7
2017-08-05T04:10:07.643Z,13.7
2017-08-05T04:11:10.130Z,13.7
2017-08-05T04:12:12.973Z,13.8
2017-08-05T04:13:16.135Z,13.8
2017-08-05T04:14:18.631Z,13.8
2017-08-05T04:15:21.472Z,13.8
2017-08-05T04:16:23.957Z,13.9
2017-08-05T04:17:26.430Z,13.9
2017-08-05T04:18:28.932Z,14
2017-08-05T04:19:31.408Z,14
2017-08-05T04:20:34.249Z,14
2017-08-05T04:21:36.736Z,14
2017-08-05T04:22:39.210Z,14.1
2017-08-05T04:23:41.691Z,14.1
2017-08-05T04:24:44.218Z,14.1
2017-08-05T04:25:47.384Z,14.1
2017-08-05T04:26:50.540Z,14.1
2017-08-05T04:27:53.038Z,14.2
2017-08-05T04:28:55.521Z,14.2
2017-08-05T04:29:58.013Z,14.2
2017-08-05T04:31:00.516Z,14.2
2017-08-05T04:32:03.355Z,14.2
2017-08-05T04:33:05.851Z,14.3
2017-08-05T04:34:08.338Z,14.2
2017-08-05T04:35:10.824Z,14.2
2017-08-05T04:36:13.666Z,14.3
2017-08-05T04:37:16.152Z,14.3
2017-08-05T04:38:18.998Z,14.3
2017-08-05T04:39:21.824Z,14.3
2017-08-05T04:40:24.308Z,14.4
2017-08-05T04:41:26.807Z,14.4
2017-08-05T04:42:29.317Z,14.4
2017-08-05T04:43:31.793Z,14.4
2017-08-05T04:44:34.300Z,14.4
2017-08-05T04:45:37.122Z,14.4
2017-08-05T04:46:39.622Z,14.4
2017-08-05T04:47:42.462Z,14.4
2017-08-05T04:48:44.958Z,14.4
2017-08-05T04:49:47.431Z,14.4
2017-08-05T04:50:51.503Z,14.5
2017-08-05T04:51:54.351Z,14.5
2017-08-05T04:52:56.862Z,14.5
2017-08-05T04:53:59.365Z,14.5
2017-08-05T04:55:02.877Z,14.6
2017-08-05T04:56:05.370Z,14.6
2017-08-05T04:57:08.684Z,14.6
2017-08-05T04:58:11.506Z,14.6
2017-08-05T04:59:14.004Z,14.6
2017-08-05T05:00:17.490Z,14.7
2017-08-05T05:01:19.983Z,14.7
2017-08-05T05:02:22.826Z,14.8
2017-08-05T05:03:25.311Z,14.8
2017-08-05T05:04:28.143Z,14.8
2017-08-05T05:05:30.983Z,14.8
2017-08-05T05:06:33.824Z,14.8
2017-08-05T05:07:36.375Z,14.8
2017-08-05T05:08:39.201Z,14.9
2017-08-05T05:09:41.790Z,14.9
2017-08-05T05:10:44.620Z,15
2017-08-05T05:11:47.109Z,15
2017-08-05T05:12:49.593Z,15
2017-08-05T05:13:52.094Z,15.1
2017-08-05T05:14:54.993Z,15.2
2017-08-05T05:15:57.840Z,15.2
2017-08-05T05:17:00.349Z,15.3
2017-08-05T05:18:02.864Z,15.3
2017-08-05T05:19:05.715Z,15.3
2017-08-05T05:20:08.560Z,15.4
2017-08-05T05:21:11.053Z,15.4
2017-08-05T05:22:13.553Z,15.4
2017-08-05T05:23:16.405Z,15.4
2017-08-05T05:24:18.913Z,15.4
2017-08-05T05:25:21.396Z,15.4
2017-08-05T05:26:23.902Z,15.4
2017-08-05T05:27:26.386Z,15.4
2017-08-05T05:28:29.221Z,15.4
2017-08-05T05:29:32.051Z,15.3
2017-08-05T05:30:34.555Z,15.3
2017-08-05T05:31:37.048Z,15.3
2017-08-05T05:32:39.536Z,15.3
2017-08-05T05:33:42.036Z,15.3
2017-08-05T05:34:44.522Z,15.4
2017-08-05T05:35:47.371Z,15.4
2017-08-05T05:36:49.857Z,15.5
2017-08-05T05:37:53.144Z,15.6
2017-08-05T05:38:55.671Z,15.6
2017-08-05T05:39:58.179Z,15.6
2017-08-05T05:41:01.492Z,15.6
2017-08-05T05:42:04.668Z,15.7
2017-08-05T05:43:07.158Z,15.8
2017-08-05T05:44:09.645Z,15.9
2017-08-05T05:45:12.149Z,15.9
2017-08-05T05:46:15.362Z,15.9
2017-08-05T05:47:17.844Z,15.9
2017-08-05T05:48:20.340Z,16
2017-08-05T05:49:22.812Z,16
2017-08-05T05:50:25.598Z,16
2017-08-05T05:51:28.393Z,16
2017-08-05T05:52:30.899Z,16.1
2017-08-05T05:53:33.657Z,16.1
2017-08-05T05:54:36.445Z,16.1
2017-08-05T05:55:38.904Z,16.2
2017-08-05T05:56:42.046Z,16.3
2017-08-05T05:57:44.526Z,16.3
2017-08-05T05:58:47.330Z,16.3
2017-08-05T05:59:50.143Z,16.3
2017-08-05T06:00:52.619Z,16.3
2017-08-05T06:01:55.069Z,16.3
2017-08-05T06:02:57.872Z,16.4
2017-08-05T06:04:00.341Z,16.3
2017-08-05T06:05:03.477Z,16.4
2017-08-05T06:06:05.931Z,16.4
2017-08-05T06:07:08.386Z,16.4
2017-08-05T06:08:11.186Z,16.5
2017-08-05T06:09:13.642Z,16.5
2017-08-05T06:10:16.460Z,16.5
2017-08-05T06:11:18.920Z,16.6
2017-08-05T06:12:21.750Z,16.6
2017-08-05T06:13:24.205Z,16.7
2017-08-05T06:14:27.673Z,16.7
2017-08-05T06:15:30.529Z,16.7
2017-08-05T06:16:33.009Z,16.7
2017-08-05T06:17:35.485Z,16.8
2017-08-05T06:18:37.944Z,16.9
2017-08-05T06:19:40.747Z,17
2017-08-05T06:20:43.204Z,17.1
2017-08-05T06:21:45.678Z,17.1
2017-08-05T06:22:48.134Z,17.1
2017-08-05T06:23:50.583Z,17.2
2017-08-05T06:24:53.386Z,17.2
2017-08-05T06:25:55.843Z,17.3
2017-08-05T06:26:58.299Z,17.3
2017-08-05T06:28:01.441Z,17.3
2017-08-05T06:29:04.586Z,17.3
2017-08-05T06:30:07.390Z,17.3
2017-08-05T06:31:10.171Z,17.3
2017-08-05T06:32:12.971Z,17.3
2017-08-05T06:33:15.771Z,17.3
2017-08-05T06:34:18.571Z,17.3
2017-08-05T06:35:21.037Z,17.3
2017-08-05T06:36:23.481Z,17.3
2017-08-05T06:37:25.943Z,17.3
2017-08-05T06:38:28.423Z,17.3
2017-08-05T06:39:31.225Z,17.4
2017-08-05T06:40:34.026Z,17.5
2017-08-05T06:41:36.485Z,17.5
2017-08-05T06:42:38.956Z,17.6
2017-08-05T06:43:41.419Z,17.6
2017-08-05T06:44:43.872Z,17.7
2017-08-05T06:45:46.669Z,17.7
2017-08-05T06:46:49.463Z,17.7
2017-08-05T06:47:51.917Z,17.7
2017-08-05T06:48:54.389Z,17.7
2017-08-05T06:49:56.826Z,17.7
2017-08-05T06:50:59.278Z,17.8
2017-08-05T06:52:01.730Z,17.9
2017-08-05T06:53:04.879Z,17.9
2017-08-05T06:54:07.332Z,18
2017-08-05T06:55:09.789Z,18
2017-08-05T06:56:12.237Z,18
2017-08-05T06:57:14.735Z,17.9
2017-08-05T06:58:17.529Z,18
2017-08-05T06:59:20.664Z,18
2017-08-05T07:00:23.473Z,18.1
2017-08-05T07:01:25.922Z,18.1
2017-08-05T07:02:28.391Z,18.2
2017-08-05T07:03:30.840Z,18.3
2017-08-05T07:04:33.312Z,18.4
2017-08-05T07:05:36.802Z,18.5
2017-08-05T07:06:39.273Z,18.4
2017-08-05T07:07:41.737Z,18.4
2017-08-05T07:08:44.199Z,18.4
2017-08-05T07:09:47.003Z,18.4
2017-08-05T07:10:49.467Z,18.5
2017-08-05T07:11:51.942Z,18.5
2017-08-05T07:12:54.392Z,18.5
2017-08-05T07:13:56.845Z,18.5
2017-08-05T07:14:59.301Z,18.6
2017-08-05T07:16:02.078Z,18.6
2017-08-05T07:17:05.230Z,18.5
2017-08-05T07:18:07.679Z,18.7
2017-08-05T07:19:10.474Z,18.7
2017-08-05T07:20:12.948Z,18.7
2017-08-05T07:21:15.411Z,18.8
2017-08-05T07:22:17.854Z,18.8
2017-08-05T07:23:20.324Z,18.8
2017-08-05T07:24:23.453Z,18.8
2017-08-05T07:25:25.903Z,18.8
2017-08-05T07:26:28.367Z,18.9
2017-08-05T07:27:30.819Z,18.9
2017-08-05T07:28:33.282Z,18.9
2017-08-05T07:29:35.742Z,18.9
2017-08-05T07:30:38.198Z,18.9
2017-08-05T07:31:40.672Z,18.9
2017-08-05T07:32:43.494Z,18.9
2017-08-05T07:33:45.951Z,18.9
2017-08-05T07:34:48.753Z,18.9
2017-08-05T07:35:51.578Z,18.9
2017-08-05T07:36:54.025Z,18.9
2017-08-05T07:37:56.822Z,18.9
2017-08-05T07:38:59.272Z,18.9
2017-08-05T07:40:02.069Z,19
2017-08-05T07:41:04.863Z,18.9
2017-08-05T07:42:07.325Z,18.9
2017-08-05T07:43:09.780Z,18.9
2017-08-05T07:44:12.585Z,19
2017-08-05T07:45:15.034Z,19.1
2017-08-05T07:46:17.848Z,19.1
2017-08-05T07:47:20.286Z,19.1
2017-08-05T07:48:22.749Z,19.1
2017-08-05T07:49:25.554Z,19.1
2017-08-05T07:50:28.017Z,19.1
2017-08-05T07:51:30.814Z,19.1
2017-08-05T07:52:33.261Z,19.1
2017-08-05T07:53:36.073Z,19.1
2017-08-05T07:54:38.540Z,19.1
2017-08-05T07:55:40.993Z,19.2
2017-08-05T07:56:43.436Z,19.3
2017-08-05T07:57:45.901Z,19.3
2017-08-05T07:58:48.360Z,19.5
2017-08-05T07:59:51.148Z,19.6
2017-08-05T08:00:54.306Z,19.6
2017-08-05T08:01:56.759Z,19.7
2017-08-05T08:02:59.224Z,19.7
2017-08-05T08:04:01.709Z,19.8
2017-08-05T08:05:04.514Z,19.7
2017-08-05T08:06:06.985Z,19.7
2017-08-05T08:07:09.435Z,19.8
2017-08-05T08:08:11.893Z,19.8
2017-08-05T08:09:14.360Z,19.8
2017-08-05T08:10:16.823Z,19.9
2017-08-05T08:11:19.632Z,19.9
2017-08-05T08:12:22.761Z,19.9
2017-08-05T08:13:25.575Z,19.9
2017-08-05T08:14:28.024Z,19.9
2017-08-05T08:15:30.491Z,20
2017-08-05T08:16:32.958Z,20
2017-08-05T08:17:35.756Z,20
2017-08-05T08:18:38.543Z,20
2017-08-05T08:19:41.010Z,20
2017-08-05T08:20:43.807Z,20
2017-08-05T08:21:46.256Z,20.2
2017-08-05T08:22:48.737Z,20.2
2017-08-05T08:23:51.524Z,20.3
2017-08-05T08:24:54.688Z,20.3
2017-08-05T08:25:57.493Z,20.7
2017-08-05T08:26:59.953Z,21
2017-08-05T08:28:02.395Z,21.1
2017-08-05T08:29:04.860Z,21
2017-08-05T08:30:07.664Z,21.2
2017-08-05T08:31:10.133Z,21.2
2017-08-05T08:32:12.598Z,21.1
2017-08-05T08:33:15.070Z,21.1
2017-08-05T08:34:17.521Z,21
2017-08-05T08:35:19.996Z,21.1
2017-08-05T08:36:22.448Z,21.1
2017-08-05T08:37:24.905Z,21
2017-08-05T08:38:27.696Z,21
2017-08-05T08:39:30.149Z,21
2017-08-05T08:40:32.635Z,20.9
2017-08-05T08:41:35.103Z,20.9
2017-08-05T08:42:37.557Z,20.9
2017-08-05T08:43:40.008Z,21
2017-08-05T08:44:42.485Z,21
2017-08-05T08:45:44.949Z,21
2017-08-05T08:46:47.402Z,21
2017-08-05T08:47:50.197Z,21
2017-08-05T08:48:52.667Z,21
2017-08-05T08:49:55.125Z,21
2017-08-05T08:50:57.925Z,21
2017-08-05T08:52:00.376Z,20.9
2017-08-05T08:53:03.509Z,21.1
2017-08-05T08:54:06.671Z,21.3
2017-08-05T08:55:09.118Z,21.4
2017-08-05T08:56:11.918Z,21.5
2017-08-05T08:57:14.712Z,21.4
2017-08-05T08:58:17.507Z,21.3
2017-08-05T08:59:19.963Z,21.3
2017-08-05T09:00:22.429Z,21.2
2017-08-05T09:01:25.245Z,21.2
2017-08-05T09:02:27.732Z,21.1
2017-08-05T09:03:30.528Z,21.1
2017-08-05T09:04:32.990Z,21.1
2017-08-05T09:05:35.466Z,21.2
2017-08-05T09:06:38.283Z,21.2
2017-08-05T09:07:40.744Z,21.4
2017-08-05T09:08:43.566Z,21.2
2017-08-05T09:09:46.016Z,21
2017-08-05T09:10:48.490Z,21
2017-08-05T09:11:50.938Z,21.2
2017-08-05T09:12:53.402Z,21.4
2017-08-05T09:13:55.859Z,21.5
2017-08-05T09:14:58.313Z,21.7
2017-08-05T09:16:00.775Z,21.7
2017-08-05T09:17:03.613Z,21.6
2017-08-05T09:18:06.401Z,21.6
2017-08-05T09:19:09.875Z,21.5
2017-08-05T09:20:12.328Z,21.4
2017-08-05T09:21:15.469Z,21.4
2017-08-05T09:22:17.944Z,21.2
2017-08-05T09:23:20.410Z,21.2
2017-08-05T09:24:22.860Z,21.2
2017-08-05T09:25:26.009Z,21.2
2017-08-05T09:26:28.469Z,21.1
2017-08-05T09:27:30.928Z,20.9
2017-08-05T09:28:34.089Z,20.9
2017-08-05T09:29:36.563Z,20.7
2017-08-05T09:30:39.016Z,20.6
2017-08-05T09:31:41.808Z,20.6
2017-08-05T09:32:44.291Z,20.5
2017-08-05T09:33:46.741Z,20.4
2017-08-05T09:34:49.212Z,20.4
2017-08-05T09:35:51.665Z,20.4
2017-08-05T09:36:54.108Z,20.4
2017-08-05T09:37:56.920Z,20.4
2017-08-05T09:38:59.718Z,20.4
2017-08-05T09:40:02.195Z,20.3
2017-08-05T09:41:05.342Z,20.4
2017-08-05T09:42:07.778Z,20.3
2017-08-05T09:43:10.579Z,20.3
2017-08-05T09:44:13.050Z,20.3
2017-08-05T09:45:15.500Z,20.4
2017-08-05T09:46:17.956Z,20.5
2017-08-05T09:47:20.422Z,20.6
2017-08-05T09:48:22.863Z,20.6
2017-08-05T09:49:26.352Z,20.6
2017-08-05T09:50:29.157Z,20.7
2017-08-05T09:51:31.939Z,20.8
2017-08-05T09:52:34.396Z,20.8
2017-08-05T09:53:36.866Z,20.8
2017-08-05T09:54:39.325Z,20.9
2017-08-05T09:55:41.790Z,20.9
2017-08-05T09:56:44.592Z,20.9
2017-08-05T09:57:47.386Z,20.9
2017-08-05T09:58:49.834Z,20.9
2017-08-05T09:59:52.300Z,20.8
2017-08-05T10:00:54.787Z,20.8
2017-08-05T10:01:57.587Z,20.8
2017-08-05T10:03:00.043Z,20.8
2017-08-05T10:04:02.845Z,20.7
2017-08-05T10:05:06.341Z,20.8
2017-08-05T10:06:08.795Z,20.6
2017-08-05T10:07:11.252Z,20.5
2017-08-05T10:08:13.698Z,20.6
2017-08-05T10:09:16.165Z,20.6
2017-08-05T10:10:18.630Z,20.6
2017-08-05T10:11:21.432Z,20.6
2017-08-05T10:12:23.891Z,20.6
2017-08-05T10:13:26.348Z,20.7
2017-08-05T10:14:29.144Z,20.7
2017-08-05T10:15:31.619Z,20.8
2017-08-05T10:16:34.070Z,20.8
2017-08-05T10:17:36.864Z,20.7
2017-08-05T10:18:39.333Z,20.7
2017-08-05T10:19:42.473Z,20.9
2017-08-05T10:20:45.950Z,20.8
2017-08-05T10:21:48.413Z,20.7
2017-08-05T10:22:50.856Z,20.7
2017-08-05T10:23:53.320Z,20.7
2017-08-05T10:24:55.791Z,20.8
2017-08-05T10:25:58.265Z,20.6
2017-08-05T10:27:01.052Z,20.6
2017-08-05T10:28:03.529Z,20.7
2017-08-05T10:29:06.328Z,20.9
2017-08-05T10:30:09.816Z,20.9
2017-08-05T10:31:12.274Z,21
2017-08-05T10:32:15.077Z,21.1
2017-08-05T10:33:17.867Z,20.9
2017-08-05T10:34:20.367Z,20.9
2017-08-05T10:35:23.170Z,21
2017-08-05T10:36:25.974Z,21.1
2017-08-05T10:37:28.431Z,21.1
2017-08-05T10:38:30.890Z,21.1
2017-08-05T10:39:33.347Z,21
2017-08-05T10:40:36.161Z,20.8
2017-08-05T10:41:38.962Z,20.9
2017-08-05T10:42:41.428Z,20.8
2017-08-05T10:43:43.879Z,20.8
2017-08-05T10:44:46.672Z,20.8
2017-08-05T10:45:49.142Z,20.8
2017-08-05T10:46:51.942Z,20.9
2017-08-05T10:47:54.734Z,20.9
2017-08-05T10:48:57.208Z,20.9
2017-08-05T10:50:00.006Z,20.9
2017-08-05T10:51:02.814Z,20.9
2017-08-05T10:52:06.284Z,20.9
2017-08-05T10:53:09.426Z,20.9
2017-08-05T10:54:11.893Z,20.9
2017-08-05T10:55:14.348Z,21
2017-08-05T10:56:16.831Z,21
2017-08-05T10:57:19.294Z,20.9
2017-08-05T10:58:22.798Z,21
2017-08-05T10:59:25.255Z,21
2017-08-05T11:00:27.700Z,20.9
2017-08-05T11:01:30.165Z,20.9
2017-08-05T11:02:32.630Z,20.8
2017-08-05T11:03:35.084Z,20.8
2017-08-05T11:04:38.253Z,20.8
2017-08-05T11:05:41.395Z,20.8
2017-08-05T11:06:44.200Z,20.8
2017-08-05T11:07:47.034Z,20.9
2017-08-05T11:08:49.485Z,20.8
2017-08-05T11:09:51.980Z,20.9
2017-08-05T11:10:54.436Z,20.9
2017-08-05T11:12:48.582Z,20.9
2017-08-05T11:13:51.438Z,20.7
2017-08-05T11:14:53.974Z,20.6
2017-08-05T11:15:56.536Z,20.7
2017-08-05T11:16:59.060Z,20.7
2017-08-05T11:18:02.584Z,20.7
2017-08-05T11:19:05.466Z,20.7
2017-08-05T11:20:08.340Z,20.5
2017-08-05T11:21:10.875Z,20.5
2017-08-05T11:22:13.440Z,20.5
2017-08-05T11:23:15.973Z,20.5
2017-08-05T11:24:18.520Z,20.5
2017-08-05T11:25:21.460Z,20.5
2017-08-05T11:26:24.328Z,20.3
2017-08-05T11:27:26.856Z,20.4
2017-08-05T11:28:29.710Z,20.4
2017-08-05T11:29:32.237Z,20.3
2017-08-05T11:30:35.085Z,20.4
2017-08-05T11:31:37.628Z,20.4
2017-08-05T11:32:40.201Z,20.3
2017-08-05T11:33:43.064Z,20.4
2017-08-05T11:34:46.228Z,20.3
2017-08-05T11:35:48.733Z,20.2
2017-08-05T11:36:51.236Z,20.2
2017-08-05T11:37:53.726Z,20.3
2017-08-05T11:38:56.236Z,20.3
2017-08-05T11:39:58.744Z,20.2
2017-08-05T11:41:01.228Z,20.3
2017-08-05T11:42:04.089Z,20.2
2017-08-05T11:43:06.593Z,20.2
2017-08-05T11:44:09.429Z,20.2
2017-08-05T11:45:12.290Z,20.2
2017-08-05T11:46:14.788Z,20.3
2017-08-05T11:47:17.313Z,20.4
2017-08-05T11:48:19.831Z,20.4
2017-08-05T11:49:22.658Z,20.3
2017-08-05T11:50:25.168Z,20.2
2017-08-05T11:51:27.695Z,20.3
2017-08-05T11:52:30.205Z,20.3
2017-08-05T11:53:32.697Z,20.2
2017-08-05T11:54:35.211Z,20.3
2017-08-05T11:55:40.397Z,20.4
2017-08-05T11:56:43.980Z,20.4
2017-08-05T11:57:47.156Z,20.3
2017-08-05T11:58:49.682Z,20.4
2017-08-05T11:59:52.214Z,20.4
2017-08-05T12:00:54.733Z,20.4
2017-08-05T12:01:57.244Z,20.4
2017-08-05T12:02:59.756Z,20.4
2017-08-05T12:04:02.967Z,20.4
2017-08-05T12:05:06.157Z,20.5
2017-08-05T12:06:08.990Z,20.5
2017-08-05T12:07:11.502Z,20.5
2017-08-05T12:08:14.038Z,20.3
2017-08-05T12:09:16.561Z,20.4
2017-08-05T12:10:19.060Z,20.3
2017-08-05T12:11:21.574Z,20.4
2017-08-05T12:12:24.081Z,20.4
2017-08-05T12:13:26.595Z,20.4
2017-08-05T12:14:29.093Z,20.4
2017-08-05T12:15:31.589Z,20.3
2017-08-05T12:16:34.083Z,20.3
2017-08-05T12:17:36.924Z,20.2
2017-08-05T12:18:39.723Z,20.2
2017-08-05T12:19:42.153Z,20.1
2017-08-05T12:20:44.587Z,20.1
2017-08-05T12:21:47.033Z,20.1
2017-08-05T12:22:49.449Z,20.1
2017-08-05T12:23:51.874Z,20.1
2017-08-05T12:24:54.330Z,20.1
2017-08-05T12:25:57.440Z,20.2
2017-08-05T12:26:59.870Z,20.2
2017-08-05T12:28:02.662Z,20.1
2017-08-05T12:29:05.095Z,20.2
2017-08-05T12:30:07.508Z,20.2
2017-08-05T12:31:10.624Z,20.2
2017-08-05T12:32:13.067Z,20.1
2017-08-05T12:33:15.499Z,20.1
2017-08-05T12:34:17.958Z,20.2
2017-08-05T12:35:20.403Z,20.2
2017-08-05T12:36:22.834Z,20.2
2017-08-05T12:37:25.609Z,20.2
2017-08-05T12:38:28.044Z,20.2
2017-08-05T12:39:30.464Z,20.3
2017-08-05T12:40:32.916Z,20.3
2017-08-05T12:41:35.650Z,20.3
2017-08-05T12:42:38.075Z,20.3
2017-08-05T12:43:41.204Z,20.3
2017-08-05T12:44:44.344Z,20.3
2017-08-05T12:45:46.777Z,20.4
2017-08-05T12:46:49.238Z,20.3
2017-08-05T12:47:52.327Z,20.4
2017-08-05T12:48:54.787Z,20.5
2017-08-05T12:49:57.218Z,20.5
2017-08-05T12:50:59.641Z,20.6
2017-08-05T12:52:02.403Z,20.5
2017-08-05T12:53:04.835Z,20.5
2017-08-05T12:54:07.597Z,20.5
2017-08-05T12:55:10.027Z,20.6
2017-08-05T12:56:12.800Z,20.6
2017-08-05T12:57:15.248Z,20.7
2017-08-05T12:58:18.026Z,20.7
2017-08-05T12:59:20.456Z,20.6
2017-08-05T13:00:23.239Z,20.8
2017-08-05T13:01:25.668Z,20.6
2017-08-05T13:02:28.112Z,20.7
2017-08-05T13:03:30.862Z,20.7
2017-08-05T13:04:33.643Z,20.8
2017-08-05T13:05:36.091Z,20.8
2017-08-05T13:06:38.520Z,20.8
2017-08-05T13:07:41.296Z,20.6
2017-08-05T13:08:43.727Z,20.6
2017-08-05T13:09:46.165Z,20.7
2017-08-05T13:10:48.938Z,20.7
2017-08-05T13:11:51.728Z,20.7
2017-08-05T13:12:54.143Z,20.7
2017-08-05T13:13:56.577Z,20.7
2017-08-05T13:14:59.004Z,20.6
2017-08-05T13:16:01.787Z,20.6
2017-08-05T13:17:05.251Z,20.5
2017-08-05T13:18:07.678Z,20.5
2017-08-05T13:19:10.115Z,20.5
2017-08-05T13:20:12.882Z,20.5
2017-08-05T13:21:15.293Z,20.4
2017-08-05T13:22:17.743Z,20.4
2017-08-05T13:23:20.175Z,20.3
2017-08-05T13:24:22.605Z,20.3
2017-08-05T13:25:25.040Z,20.4
2017-08-05T13:26:27.801Z,20.3
2017-08-05T13:27:30.578Z,20.2
2017-08-05T13:28:33.005Z,20.1
2017-08-05T13:29:35.440Z,20.1
2017-08-05T13:30:37.867Z,20
2017-08-05T13:31:40.294Z,19.9
2017-08-05T13:32:42.719Z,19.9
2017-08-05T13:33:45.140Z,19.9
2017-08-05T13:34:48.234Z,19.9
2017-08-05T13:35:50.991Z,19.8
2017-08-05T13:36:53.422Z,19.8
2017-08-05T13:37:55.825Z,19.7
2017-08-05T13:38:58.248Z,19.6
2017-08-05T13:40:01.690Z,19.6
2017-08-05T13:41:04.803Z,19.6
2017-08-05T13:42:08.260Z,19.6
2017-08-05T13:43:10.689Z,19.6
2017-08-05T13:44:13.460Z,19.6
2017-08-05T13:45:16.238Z,19.5
2017-08-05T13:46:19.002Z,19.6
2017-08-05T13:47:21.785Z,19.6
2017-08-05T13:48:24.234Z,19.6
2017-08-05T13:49:27.345Z,19.6
2017-08-05T13:50:30.111Z,19.6
2017-08-05T13:51:32.548Z,19.7
2017-08-05T13:52:34.970Z,19.7
2017-08-05T13:53:37.390Z,19.7
2017-08-05T13:54:39.814Z,19.8
2017-08-05T13:55:42.250Z,19.8
2017-08-05T13:56:44.671Z,19.8
2017-08-05T13:57:47.423Z,19.8
2017-08-05T13:58:49.860Z,19.8